Time;durP1;ratioP1;P1;durP2;ratioP2;P2;SDS_P1;SDS_P2;PMS_P1;PMS_P2;Temp;Humidity;BMP_temperature;BMP_pressure;BME280_temperature;BME280_humidity;BME280_pressure;Samples;Min_cycle;Max_cycle;Signal;HPM_P1;HPM_P2
2024/01/01 00:00:16;;;;;;;50.30;39.30;;;;;;;16.72;39.19;100931.89;103330;1282;61458;-77
2024/01/01 00:02:42;;;;;;;55.30;39.60;;;;;;;16.72;39.20;100932.62;103486;1281;61468;-77
2024/01/01 00:05:08;;;;;;;52.50;40.40;;;;;;;16.72;39.17;100934.39;103483;1282;61376;-77
2024/01/01 00:07:33;;;;;;;52.20;40.30;;;;;;;16.73;39.15;100929.04;103446;1282;61366;-77
2024/01/01 00:09:59;;;;;;;54.70;40.90;;;;;;;16.72;39.24;100924.98;103612;1282;61405;-77
2024/01/01 00:12:25;;;;;;;57.60;39.80;;;;;;;16.72;39.16;100929.61;103322;1280;62239;-77
2024/01/01 00:14:51;;;;;;;49.80;38.80;;;;;;;16.72;39.18;100935.48;103491;1280;61418;-77
2024/01/01 00:17:16;;;;;;;52.00;38.50;;;;;;;16.72;39.24;100939.04;103233;1282;62037;-77
2024/01/01 00:19:42;;;;;;;51.60;38.60;;;;;;;16.72;39.29;100941.38;103331;1282;61368;-77
2024/01/01 00:22:08;;;;;;;50.80;39.40;;;;;;;16.71;39.15;100939.41;103023;1282;62300;-77
2024/01/01 00:24:33;;;;;;;51.90;38.70;;;;;;;16.72;39.12;100937.82;103279;1282;61336;-77
2024/01/01 00:26:59;;;;;;;55.90;40.40;;;;;;;16.71;39.20;100933.05;103462;1281;61391;-77
2024/01/01 00:29:25;;;;;;;53.50;39.90;;;;;;;16.71;39.16;100932.86;103502;1281;61414;-77
2024/01/01 00:31:52;;;;;;;52.90;39.10;;;;;;;16.71;39.26;100931.61;103447;1282;71825;-77
2024/01/01 00:34:17;;;;;;;54.10;40.00;;;;;;;16.71;39.27;100927.73;103508;1281;75277;-77
2024/01/01 00:36:43;;;;;;;55.20;39.30;;;;;;;16.71;39.16;100933.75;103455;1282;59452;-77
2024/01/01 00:39:09;;;;;;;50.90;39.40;;;;;;;16.71;39.17;100937.68;103735;1282;61339;-77
2024/01/01 00:41:36;;;;;;;53.20;39.50;;;;;;;16.71;39.15;100936.44;103460;1282;61380;-77
2024/01/01 00:44:05;;;;;;;54.40;40.50;;;;;;;16.70;39.24;100937.69;103506;1281;61385;-77
2024/01/01 00:46:31;;;;;;;54.30;39.30;;;;;;;16.71;39.19;100941.05;103425;1280;61321;-77
2024/01/01 00:48:57;;;;;;;58.40;41.30;;;;;;;16.70;39.12;100938.06;103627;1282;60608;-77
2024/01/01 00:51:23;;;;;;;52.90;39.80;;;;;;;16.70;39.26;100930.25;103488;1281;62134;-77
2024/01/01 00:53:49;;;;;;;57.00;39.70;;;;;;;16.70;39.18;100930.25;103272;1280;61394;-77
2024/01/01 00:56:14;;;;;;;51.90;39.80;;;;;;;16.70;39.16;100926.71;103351;1282;59943;-77
2024/01/01 00:58:40;;;;;;;55.90;40.60;;;;;;;16.70;39.09;100924.21;103444;1282;61557;-77
2024/01/01 01:01:07;;;;;;;54.40;40.00;;;;;;;16.70;39.25;100924.41;104152;1281;60056;-77
2024/01/01 01:03:34;;;;;;;51.00;39.00;;;;;;;16.69;39.19;100922.28;104647;1282;72463;-77
2024/01/01 01:06:00;;;;;;;55.00;41.70;;;;;;;16.70;39.12;100918.18;104287;1281;75506;-77
2024/01/01 01:08:26;;;;;;;57.60;40.70;;;;;;;16.70;39.20;100916.04;104189;1282;61478;-77
2024/01/01 01:10:51;;;;;;;54.60;39.30;;;;;;;16.70;39.29;100912.67;104226;1281;61265;-77
2024/01/01 01:13:17;;;;;;;56.60;41.10;;;;;;;16.70;39.17;100910.89;104101;1281;60023;-78
2024/01/01 01:15:43;;;;;;;52.00;40.30;;;;;;;16.69;39.16;100906.99;104231;1282;61351;-77
2024/01/01 01:18:08;;;;;;;54.40;41.80;;;;;;;16.70;39.17;100900.77;104015;1282;61382;-77
2024/01/01 01:20:34;;;;;;;52.80;40.90;;;;;;;16.69;39.12;100899.38;104209;1281;61350;-77
2024/01/01 01:22:59;;;;;;;55.00;41.30;;;;;;;16.69;39.09;100895.63;104033;1282;59658;-77
2024/01/01 01:25:26;;;;;;;56.30;41.00;;;;;;;16.69;39.17;100894.02;103805;1282;61566;-77
2024/01/01 01:27:51;;;;;;;55.10;41.50;;;;;;;16.69;39.10;100893.17;103848;1282;61273;-77
2024/01/01 01:30:17;;;;;;;56.40;42.30;;;;;;;16.69;39.17;100893.51;103796;1282;59948;-77
2024/01/01 01:32:43;;;;;;;56.70;42.10;;;;;;;16.69;39.07;100898.48;103898;1281;62269;-77
2024/01/01 01:35:10;;;;;;;57.50;43.60;;;;;;;16.69;39.17;100899.56;103337;1282;61293;-77
2024/01/01 01:37:36;;;;;;;57.60;43.60;;;;;;;16.69;39.21;100893.18;103247;1281;72514;-77
2024/01/01 01:40:03;;;;;;;56.30;41.50;;;;;;;16.69;39.17;100894.06;103209;1282;61362;-77
2024/01/01 01:42:29;;;;;;;57.30;42.90;;;;;;;16.68;39.15;100884.48;103235;1282;62188;-76
2024/01/01 01:44:55;;;;;;;57.80;43.90;;;;;;;16.68;39.11;100879.36;103586;1282;61342;-77
2024/01/01 01:47:22;;;;;;;56.40;42.70;;;;;;;16.68;39.13;100875.62;103128;1282;62351;-77
2024/01/01 01:49:48;;;;;;;60.10;43.30;;;;;;;16.68;39.11;100869.41;103145;1282;61330;-77
2024/01/01 01:52:13;;;;;;;60.40;43.80;;;;;;;16.68;39.14;100870.66;103230;1281;60085;-77
2024/01/01 01:54:39;;;;;;;53.90;43.70;;;;;;;16.67;39.18;100874.40;103273;1282;61351;-77
2024/01/01 01:57:06;;;;;;;59.90;43.70;;;;;;;16.67;39.17;100870.36;103311;1281;61402;-77
2024/01/01 01:59:32;;;;;;;61.80;46.10;;;;;;;16.67;39.13;100871.38;103229;1282;61369;-77
2024/01/01 02:01:58;;;;;;;59.30;45.00;;;;;;;16.67;39.11;100871.56;103513;1281;61377;-77
2024/01/01 02:04:24;;;;;;;58.70;44.60;;;;;;;16.67;39.28;100866.80;103294;1282;61466;-77
2024/01/01 02:06:50;;;;;;;59.00;44.70;;;;;;;16.67;39.16;100865.75;103220;1282;61351;-77
2024/01/01 02:09:15;;;;;;;59.30;44.60;;;;;;;16.66;39.10;100860.77;103337;1281;61474;-77
2024/01/01 02:11:41;;;;;;;60.10;45.20;;;;;;;16.66;39.12;100860.61;103304;1281;61395;-77
2024/01/01 02:14:11;;;;;;;59.20;45.60;;;;;;;16.66;39.03;100861.86;103308;1281;61141;-77
2024/01/01 02:16:38;;;;;;;62.60;45.70;;;;;;;16.66;39.06;100864.19;103130;1282;60161;-77
2024/01/01 02:19:18;;;;;;;60.90;44.70;;;;;;;16.66;39.06;100857.60;103279;1281;72595;-77
2024/01/01 02:21:43;;;;;;;60.70;46.80;;;;;;;16.65;39.16;100856.92;103277;1282;74533;-77
2024/01/01 02:24:09;;;;;;;57.70;44.90;;;;;;;16.65;39.02;100853.73;103309;1281;61277;-77
2024/01/01 02:26:35;;;;;;;60.20;45.40;;;;;;;16.65;39.02;100850.55;103253;1282;61469;-77
2024/01/01 02:29:01;;;;;;;60.60;42.90;;;;;;;16.65;39.09;100850.17;103272;1282;61401;-77
2024/01/01 02:31:26;;;;;;;61.00;45.80;;;;;;;16.65;39.03;100846.65;103291;1281;60079;-77
2024/01/01 02:33:52;;;;;;;59.50;46.30;;;;;;;16.65;39.04;100849.67;103337;1281;61395;-77
2024/01/01 02:36:17;;;;;;;60.10;44.20;;;;;;;16.64;39.03;100852.70;103378;1281;61299;-77
2024/01/01 02:38:43;;;;;;;61.90;45.90;;;;;;;16.65;39.11;100852.89;103262;1282;61408;-77
2024/01/01 02:41:09;;;;;;;59.40;43.80;;;;;;;16.64;39.00;100847.73;103287;1281;61881;-77
2024/01/01 02:43:34;;;;;;;55.90;43.60;;;;;;;16.64;39.13;100849.70;103280;1281;59969;-77
2024/01/01 02:46:00;;;;;;;59.90;45.20;;;;;;;16.64;39.12;100848.83;103282;1282;61453;-77
2024/01/01 02:48:26;;;;;;;57.10;45.70;;;;;;;16.64;39.14;100846.55;103259;1282;61389;-77
2024/01/01 02:50:51;;;;;;;54.70;42.80;;;;;;;16.64;39.08;100844.04;103225;1282;60124;-77
2024/01/01 02:53:18;;;;;;;59.10;44.40;;;;;;;16.63;39.08;100843.36;103282;1282;61287;-77
2024/01/01 02:55:44;;;;;;;58.40;43.50;;;;;;;16.63;39.07;100842.63;103204;1282;61360;-77
2024/01/01 02:58:10;;;;;;;56.60;42.90;;;;;;;16.63;39.05;100842.99;103249;1284;61259;-77
2024/01/01 03:00:36;;;;;;;55.00;42.70;;;;;;;16.63;39.02;100845.51;103322;1282;61270;-77
2024/01/01 03:03:03;;;;;;;55.70;43.50;;;;;;;16.63;39.02;100845.70;103529;1282;61559;-77
2024/01/01 03:05:28;;;;;;;60.20;44.30;;;;;;;16.62;39.01;100842.31;103260;1282;61577;-77
2024/01/01 03:07:54;;;;;;;55.70;44.10;;;;;;;16.63;38.97;100840.89;103296;1284;61399;-77
2024/01/01 03:10:20;;;;;;;57.00;43.30;;;;;;;16.63;39.03;100834.86;103378;1281;61216;-77
2024/01/01 03:12:45;;;;;;;56.00;42.90;;;;;;;16.62;38.91;100833.45;103736;1282;61245;-77
2024/01/01 03:15:11;;;;;;;55.10;42.70;;;;;;;16.62;38.98;100834.88;103321;1281;60011;-77
2024/01/01 03:17:37;;;;;;;58.50;44.10;;;;;;;16.62;39.02;100835.23;103314;1281;61395;-77
2024/01/01 03:20:04;;;;;;;56.60;43.40;;;;;;;16.62;38.99;100834.88;103307;1282;61450;-77
2024/01/01 03:22:31;;;;;;;57.20;43.70;;;;;;;16.62;39.00;100831.67;103356;1282;61385;-77
2024/01/01 03:24:56;;;;;;;54.90;43.00;;;;;;;16.62;39.03;100829.55;103297;1282;62189;-77
2024/01/01 03:27:22;;;;;;;55.80;42.50;;;;;;;16.61;38.93;100827.10;103181;1282;61404;-77
2024/01/01 03:29:48;;;;;;;55.30;43.70;;;;;;;16.61;38.96;100827.66;103268;1282;60143;-77
2024/01/01 03:32:14;;;;;;;54.30;42.50;;;;;;;16.61;39.01;100827.47;103275;1282;61411;-77
2024/01/01 03:34:40;;;;;;;56.50;42.40;;;;;;;16.61;38.96;100829.25;103150;1284;59920;-77
2024/01/01 03:37:05;;;;;;;57.00;43.50;;;;;;;16.61;38.89;100824.98;103312;1282;72244;-77
2024/01/01 03:39:31;;;;;;;55.00;42.90;;;;;;;16.61;38.95;100821.07;103155;1282;61275;-77
2024/01/01 03:41:57;;;;;;;55.50;43.70;;;;;;;16.60;39.00;100813.65;103302;1282;61394;-77
2024/01/01 03:44:22;;;;;;;58.10;43.10;;;;;;;16.60;38.90;100809.55;103110;1282;61238;-77
2024/01/01 03:46:48;;;;;;;57.20;43.40;;;;;;;16.60;38.94;100805.13;103317;1282;61380;-77
2024/01/01 03:49:14;;;;;;;59.60;43.00;;;;;;;16.60;38.91;100804.27;103178;1282;62144;-77
2024/01/01 03:51:39;;;;;;;57.70;44.50;;;;;;;16.59;39.00;100799.84;103126;1282;74363;-77
2024/01/01 03:54:05;;;;;;;56.50;42.40;;;;;;;16.59;38.93;100791.52;103401;1281;61413;-77
2024/01/01 03:56:31;;;;;;;55.80;42.50;;;;;;;16.59;38.96;100791.15;103417;1282;61353;-77
2024/01/01 03:58:57;;;;;;;55.60;42.60;;;;;;;16.59;38.91;100790.08;103302;1281;61444;-77
2024/01/01 04:01:22;;;;;;;59.30;42.70;;;;;;;16.59;38.93;100793.26;103339;1282;60066;-77
2024/01/01 04:03:48;;;;;;;53.40;42.10;;;;;;;16.59;38.96;100794.53;103443;1281;61510;-77
2024/01/01 04:06:14;;;;;;;58.90;44.50;;;;;;;16.59;38.99;100795.92;103266;1281;61159;-77
2024/01/01 04:08:39;;;;;;;56.00;42.80;;;;;;;16.58;38.99;100794.73;103332;1282;61351;-77
2024/01/01 04:11:05;;;;;;;56.80;43.40;;;;;;;16.58;38.91;100794.02;103300;1282;61568;-77
2024/01/01 04:13:31;;;;;;;58.80;42.50;;;;;;;16.58;38.99;100789.43;103375;1282;61932;-77
2024/01/01 04:15:57;;;;;;;55.00;42.40;;;;;;;16.58;38.96;100788.55;103096;1282;61389;-77
2024/01/01 04:18:23;;;;;;;56.80;42.80;;;;;;;16.58;38.93;100785.15;103305;1282;62061;-77
2024/01/01 04:20:49;;;;;;;56.30;43.20;;;;;;;16.57;38.90;100784.30;103373;1282;62259;-77
2024/01/01 04:23:15;;;;;;;54.70;42.10;;;;;;;16.57;39.01;100783.42;103226;1282;73044;-77
2024/01/01 04:25:40;;;;;;;57.20;43.60;;;;;;;16.57;39.00;100781.12;103332;1282;61228;-77
2024/01/01 04:28:06;;;;;;;54.10;42.80;;;;;;;16.57;39.03;100778.96;103259;1282;61293;-77
2024/01/01 04:30:32;;;;;;;57.30;45.00;;;;;;;16.57;38.94;100777.05;103239;1282;61488;-77
2024/01/01 04:32:57;;;;;;;56.60;42.90;;;;;;;16.56;38.83;100775.44;103228;1282;61337;-77
2024/01/01 04:35:23;;;;;;;61.70;43.90;;;;;;;16.56;38.89;100767.80;103595;1282;61359;-77
2024/01/01 04:37:48;;;;;;;52.10;42.00;;;;;;;16.56;38.91;100769.77;103337;1281;74728;-77
2024/01/01 04:40:15;;;;;;;59.00;45.10;;;;;;;16.56;39.02;100764.45;103191;1282;61554;-77
2024/01/01 04:42:41;;;;;;;55.80;43.30;;;;;;;16.56;38.92;100763.40;103095;1282;62327;-77
2024/01/01 04:45:07;;;;;;;58.80;44.50;;;;;;;16.56;38.95;100767.30;103190;1282;61374;-77
2024/01/01 04:47:33;;;;;;;55.60;41.70;;;;;;;16.55;38.97;100761.47;103283;1282;61373;-77
2024/01/01 04:49:59;;;;;;;57.80;42.70;;;;;;;16.56;38.90;100758.98;103112;1282;61251;-77
2024/01/01 04:52:24;;;;;;;57.60;43.10;;;;;;;16.56;38.89;100756.66;103311;1281;61375;-77
2024/01/01 04:54:54;;;;;;;58.10;44.20;;;;;;;16.55;39.00;100754.75;103346;1281;59934;-77
2024/01/01 04:57:20;;;;;;;;;;;;;;;16.55;38.87;100755.63;103564;1282;60041;-77
2024/01/01 04:59:45;;;;;;;56.60;43.40;;;;;;;16.52;38.96;100755.08;103279;1282;61378;-77
2024/01/01 05:02:11;;;;;;;57.30;43.50;;;;;;;16.53;38.93;100760.19;103227;1282;61396;-77
2024/01/01 05:04:36;;;;;;;55.90;43.40;;;;;;;16.54;38.86;100759.27;103173;1282;60124;-77
2024/01/01 05:07:03;;;;;;;56.50;42.60;;;;;;;16.53;38.80;100756.98;103258;1282;61338;-77
2024/01/01 05:09:29;;;;;;;55.10;42.10;;;;;;;16.53;38.90;100757.32;103312;1282;74461;-77
2024/01/01 05:11:55;;;;;;;58.00;44.10;;;;;;;16.53;38.94;100755.72;103376;1281;61251;-77
2024/01/01 05:14:21;;;;;;;57.60;44.90;;;;;;;16.53;38.89;100757.66;103324;1281;61379;-77
2024/01/01 05:16:47;;;;;;;52.40;42.10;;;;;;;16.53;38.84;100757.70;103250;1282;61262;-77
2024/01/01 05:19:13;;;;;;;57.30;43.80;;;;;;;16.53;38.99;100753.27;103293;1281;61395;-77
2024/01/01 05:21:38;;;;;;;57.00;43.00;;;;;;;16.53;38.83;100752.73;103323;1282;61337;-77
2024/01/01 05:24:04;;;;;;;54.90;42.00;;;;;;;16.53;38.91;100752.89;103335;1282;61250;-77
2024/01/01 05:26:30;;;;;;;58.70;44.00;;;;;;;16.53;38.88;100752.20;103191;1282;62294;-77
2024/01/01 05:28:56;;;;;;;55.40;42.30;;;;;;;16.53;38.90;100752.02;103280;1282;60090;-76
2024/01/01 05:31:22;;;;;;;58.10;43.20;;;;;;;16.52;38.86;100757.17;103326;1282;61256;-76
2024/01/01 05:33:48;;;;;;;56.90;43.30;;;;;;;16.52;38.80;100761.09;103157;1282;61263;-76
2024/01/01 05:36:13;;;;;;;58.90;43.70;;;;;;;16.52;38.89;100762.89;103323;1281;61708;-76
2024/01/01 05:38:40;;;;;;;56.80;43.10;;;;;;;16.52;38.86;100761.27;103271;1282;60133;-76
2024/01/01 05:41:05;;;;;;;60.20;44.60;;;;;;;16.52;38.86;100763.77;103338;1282;62266;-76
2024/01/01 05:43:33;;;;;;;58.10;43.50;;;;;;;16.53;38.86;100759.66;103284;1281;61336;-76
2024/01/01 05:45:59;;;;;;;57.20;44.70;;;;;;;16.52;38.81;100758.63;103179;1282;61392;-76
2024/01/01 05:48:25;;;;;;;53.10;42.70;;;;;;;16.52;38.88;100751.72;103270;1281;60051;-76
2024/01/01 05:50:51;;;;;;;56.50;44.60;;;;;;;16.52;38.76;100755.42;103349;1282;61422;-76
2024/01/01 05:53:16;;;;;;;55.00;42.30;;;;;;;16.52;38.78;100756.15;103150;1282;61261;-76
2024/01/01 05:55:42;;;;;;;56.40;43.60;;;;;;;16.52;38.72;100757.05;103255;1281;61170;-76
2024/01/01 05:58:09;;;;;;;58.70;42.70;;;;;;;16.51;38.83;100761.15;103357;1281;61450;-76
2024/01/01 06:00:36;;;;;;;61.10;45.20;;;;;;;16.51;38.88;100756.89;103195;1282;61411;-77
2024/01/01 06:03:05;;;;;;;57.40;44.70;;;;;;;16.51;38.80;100757.44;103273;1281;61385;-76
2024/01/01 06:05:33;;;;;;;56.10;43.60;;;;;;;16.51;38.74;100749.45;103152;1284;59984;-76
2024/01/01 06:08:01;;;;;;;54.90;43.30;;;;;;;16.50;38.85;100747.52;103363;1282;60051;-76
2024/01/01 06:10:27;;;;;;;58.60;45.00;;;;;;;16.51;38.85;100746.98;103182;1281;72424;-76
2024/01/01 06:12:53;;;;;;;57.50;44.30;;;;;;;16.51;38.80;100744.85;103276;1281;61254;-76
2024/01/01 06:15:18;;;;;;;56.30;43.60;;;;;;;16.50;38.78;100747.16;103265;1282;61351;-76
2024/01/01 06:17:44;;;;;;;55.90;43.80;;;;;;;16.50;38.71;100751.96;103202;1282;61361;-76
2024/01/01 06:20:10;;;;;;;55.30;41.30;;;;;;;16.51;38.73;100751.95;103253;1282;61379;-77
2024/01/01 06:22:36;;;;;;;53.60;42.30;;;;;;;16.50;38.76;100753.95;103302;1282;61274;-76
2024/01/01 06:25:02;;;;;;;56.00;44.80;;;;;;;16.50;38.83;100758.38;103105;1282;75422;-76
2024/01/01 06:27:27;;;;;;;57.20;43.20;;;;;;;16.50;38.77;100760.16;103258;1282;61375;-77
2024/01/01 06:29:53;;;;;;;58.40;44.10;;;;;;;16.50;38.88;100766.02;103246;1282;59992;-76
2024/01/01 06:32:19;;;;;;;58.10;44.10;;;;;;;16.50;38.88;100764.61;103241;1281;62154;-76
2024/01/01 06:34:46;;;;;;;55.20;44.40;;;;;;;16.50;38.76;100765.15;103255;1284;61379;-77
2024/01/01 06:37:12;;;;;;;58.80;44.00;;;;;;;16.50;38.77;100762.66;103310;1281;59903;-77
2024/01/01 06:39:38;;;;;;;57.00;44.30;;;;;;;16.49;38.79;100759.67;103131;1286;61239;-77
2024/01/01 06:42:03;;;;;;;58.20;45.20;;;;;;;16.49;38.72;100759.33;103272;1282;61477;-76
2024/01/01 06:44:29;;;;;;;60.00;44.30;;;;;;;16.49;38.82;100760.21;103190;1281;73509;-76
2024/01/01 06:46:55;;;;;;;62.20;45.50;;;;;;;16.49;38.76;100767.14;103212;1282;62320;-76
2024/01/01 06:49:20;;;;;;;60.00;46.20;;;;;;;16.49;38.90;100768.75;103181;1282;61374;-76
2024/01/01 06:51:52;;;;;;;56.20;44.50;;;;;;;16.49;38.82;100771.08;103289;1281;61386;-76
2024/01/01 06:54:18;;;;;;;60.40;44.90;;;;;;;16.49;38.74;100767.33;103062;1283;71124;-76
2024/01/01 06:56:43;;;;;;;57.50;45.80;;;;;;;16.49;38.92;100760.42;103261;1282;61381;-77
2024/01/01 06:59:15;;;;;;;59.80;45.50;;;;;;;16.48;38.81;100762.39;103192;1282;61367;-77
2024/01/01 07:01:42;;;;;;;59.60;46.60;;;;;;;16.48;38.71;100756.90;103091;1282;60124;-76
2024/01/01 07:04:14;;;;;;;58.30;45.10;;;;;;;16.48;38.73;100758.11;103103;1282;72346;-76
2024/01/01 07:06:39;;;;;;;58.40;46.10;;;;;;;16.48;38.67;100758.88;103336;1282;61401;-77
2024/01/01 07:09:07;;;;;;;58.80;46.40;;;;;;;16.48;38.70;100759.40;103073;1282;60163;-77
2024/01/01 07:11:32;;;;;;;60.10;46.00;;;;;;;16.48;38.79;100757.79;103189;1282;61272;-76
2024/01/01 07:13:59;;;;;;;60.60;46.60;;;;;;;16.47;38.64;100755.86;103237;1282;61387;-76
2024/01/01 07:16:24;;;;;;;63.70;48.40;;;;;;;16.48;38.73;100756.73;103281;1282;59924;-76
2024/01/01 07:18:50;;;;;;;58.90;44.70;;;;;;;16.47;38.75;100754.81;103047;1282;61321;-76
2024/01/01 07:21:15;;;;;;;59.50;45.90;;;;;;;16.47;38.69;100753.94;103230;1282;61256;-76
2024/01/01 07:23:41;;;;;;;58.70;47.10;;;;;;;16.47;38.71;100759.98;103235;1281;61337;-76
2024/01/01 07:26:07;;;;;;;60.60;46.10;;;;;;;16.47;38.72;100757.51;103232;1282;61440;-76
2024/01/01 07:28:32;;;;;;;61.10;47.40;;;;;;;16.46;38.73;100757.34;103247;1282;61269;-76
2024/01/01 07:30:59;;;;;;;60.40;47.30;;;;;;;16.46;38.76;100754.67;103155;1282;61381;-76
2024/01/01 07:33:26;;;;;;;60.30;47.70;;;;;;;16.46;38.73;100752.39;103291;1282;59921;-76
2024/01/01 07:35:52;;;;;;;61.10;46.50;;;;;;;16.46;38.67;100746.86;103289;1282;61324;-77
2024/01/01 07:38:17;;;;;;;59.50;46.60;;;;;;;16.46;38.85;100751.86;102752;1282;598396;-77
2024/01/01 07:40:43;;;;;;;60.10;46.00;;;;;;;16.46;38.76;100752.21;103256;1282;61382;-76
2024/01/01 07:43:09;;;;;;;58.20;45.90;;;;;;;16.46;38.79;100750.61;103133;1282;61421;-76
2024/01/01 07:45:35;;;;;;;61.20;47.00;;;;;;;16.46;38.74;100752.05;103306;1282;61747;-76
2024/01/01 07:48:01;;;;;;;56.20;45.70;;;;;;;16.45;38.76;100749.24;103162;1282;61405;-76
2024/01/01 07:50:26;;;;;;;58.60;45.50;;;;;;;16.45;38.81;100743.19;103275;1285;61365;-76
2024/01/01 07:52:52;;;;;;;65.30;47.00;;;;;;;16.45;38.74;100745.67;103249;1282;61490;-77
2024/01/01 07:55:18;;;;;;;59.90;46.10;;;;;;;16.45;38.77;100746.75;103232;1282;61300;-77
2024/01/01 07:57:46;;;;;;;61.80;46.30;;;;;;;16.45;38.90;100750.30;103298;1286;60002;-76
2024/01/01 08:00:12;;;;;;;59.00;46.10;;;;;;;16.44;38.86;100744.12;103099;1282;73826;-76
2024/01/01 08:02:38;;;;;;;58.20;45.70;;;;;;;16.44;38.67;100737.90;103266;1282;61276;-76
2024/01/01 08:05:05;;;;;;;61.50;46.10;;;;;;;16.44;38.80;100740.38;103172;1282;61325;-78
2024/01/01 08:07:31;;;;;;;56.90;44.00;;;;;;;16.45;38.80;100742.48;103235;1282;61341;-76
2024/01/01 08:09:56;;;;;;;56.50;44.90;;;;;;;16.44;38.75;100737.05;103177;1287;61388;-77
2024/01/01 08:12:22;;;;;;;57.30;45.00;;;;;;;16.44;38.84;100742.17;103332;1282;59957;-77
2024/01/01 08:14:48;;;;;;;57.70;43.90;;;;;;;16.44;38.86;100740.07;103072;1282;61481;-77
2024/01/01 08:17:13;;;;;;;57.40;43.10;;;;;;;16.44;38.81;100742.00;103510;1285;61398;-77
2024/01/01 08:19:39;;;;;;;53.90;44.40;;;;;;;16.44;38.82;100743.06;103348;1282;61176;-77
2024/01/01 08:22:05;;;;;;;56.20;43.90;;;;;;;16.44;38.86;100745.38;103327;1282;61253;-77
2024/01/01 08:24:31;;;;;;;55.60;42.50;;;;;;;16.44;38.80;100748.58;103359;1282;62303;-77
2024/01/01 08:26:56;;;;;;;58.40;44.50;;;;;;;16.44;38.84;100747.16;103128;1287;59448;-77
2024/01/01 08:29:22;;;;;;;54.60;42.50;;;;;;;16.44;38.91;100748.77;103104;1282;61401;-77
2024/01/01 08:31:47;;;;;;;56.00;44.10;;;;;;;16.43;38.93;100743.64;103237;1282;61486;-77
2024/01/01 08:34:13;;;;;;;56.70;44.00;;;;;;;16.43;38.95;100739.36;103256;1282;72670;-77
2024/01/01 08:36:39;;;;;;;54.30;43.40;;;;;;;16.42;38.82;100738.88;103250;1282;61373;-77
2024/01/01 08:39:05;;;;;;;56.50;43.80;;;;;;;16.43;38.98;100739.02;103292;1281;61346;-77
2024/01/01 08:41:31;;;;;;;53.50;42.40;;;;;;;16.43;38.95;100736.36;103340;1282;61263;-77
2024/01/01 08:43:58;;;;;;;52.80;41.40;;;;;;;16.44;38.92;100734.20;103187;1282;62248;-77
2024/01/01 08:46:24;;;;;;;54.20;42.40;;;;;;;16.43;38.91;100723.39;103207;1282;61356;-77
2024/01/01 08:48:53;;;;;;;52.90;41.80;;;;;;;16.44;39.02;100716.08;103093;1282;60052;-77
2024/01/01 08:51:19;;;;;;;51.00;40.50;;;;;;;16.43;38.91;100710.95;103283;1282;61286;-77
2024/01/01 08:53:44;;;;;;;55.80;42.80;;;;;;;16.43;38.98;100716.13;103229;1284;61694;-77
2024/01/01 08:56:11;;;;;;;54.60;42.00;;;;;;;16.43;38.92;100709.02;103331;1283;61368;-77
2024/01/01 08:58:36;;;;;;;53.30;42.00;;;;;;;16.43;38.89;100701.89;103290;1281;61398;-77
2024/01/01 09:01:03;;;;;;;53.20;41.40;;;;;;;16.43;38.98;100694.95;103286;1281;59962;-77
2024/01/01 09:03:29;;;;;;;56.10;42.10;;;;;;;16.44;39.03;100691.75;103729;1285;60050;-77
2024/01/01 09:05:57;;;;;;;54.80;42.40;;;;;;;16.44;38.99;100690.31;103326;1282;61325;-77
2024/01/01 09:08:24;;;;;;;52.00;41.50;;;;;;;16.44;39.09;100692.09;103386;1282;61355;-77
2024/01/01 09:10:50;;;;;;;52.30;40.30;;;;;;;16.43;39.08;100688.91;103149;1282;61330;-77
2024/01/01 09:13:16;;;;;;;47.60;39.40;;;;;;;16.44;39.02;100693.52;103826;1286;59351;-77
2024/01/01 09:15:42;;;;;;;48.30;39.20;;;;;;;16.44;39.13;100691.90;103202;1282;62249;-77
2024/01/01 09:18:07;;;;;;;52.70;41.60;;;;;;;16.44;39.04;100686.39;103206;1282;61247;-77
2024/01/01 09:20:34;;;;;;;52.30;40.90;;;;;;;16.44;39.15;100679.14;103342;1281;61325;-77
2024/01/01 09:22:59;;;;;;;50.00;38.50;;;;;;;16.44;39.11;100674.67;103412;1284;61398;-77
2024/01/01 09:25:25;;;;;;;51.40;40.40;;;;;;;16.44;39.23;100672.72;103086;1284;73344;-77
2024/01/01 09:27:51;;;;;;;51.80;39.90;;;;;;;16.44;39.17;100676.27;103346;1285;61163;-77
2024/01/01 09:30:17;;;;;;;52.10;38.80;;;;;;;16.44;39.15;100678.77;103314;1282;62151;-77
2024/01/01 09:32:42;;;;;;;51.00;39.90;;;;;;;16.44;39.13;100674.32;103821;1282;59310;-77
2024/01/01 09:35:08;;;;;;;50.00;40.10;;;;;;;16.44;39.18;100665.59;103356;1286;61457;-77
2024/01/01 09:37:35;;;;;;;52.00;39.20;;;;;;;16.44;39.23;100660.45;102931;1288;61456;-77
2024/01/01 09:40:01;;;;;;;49.10;39.10;;;;;;;16.45;39.28;100653.89;103487;1282;61439;-77
2024/01/01 09:42:27;;;;;;;50.40;39.30;;;;;;;16.44;39.27;100651.23;103328;1282;61393;-77
2024/01/01 09:44:53;;;;;;;49.00;38.70;;;;;;;16.45;39.15;100645.50;103347;1282;61340;-77
2024/01/01 09:47:19;;;;;;;48.40;38.00;;;;;;;16.45;39.26;100644.27;103319;1282;72237;-77
2024/01/01 09:49:45;;;;;;;49.10;38.30;;;;;;;16.44;39.25;100644.81;103341;1282;61715;-77
2024/01/01 09:52:14;;;;;;;51.60;39.10;;;;;;;16.45;39.29;100648.71;103198;1282;61237;-77
2024/01/01 09:54:40;;;;;;;47.50;38.20;;;;;;;16.45;39.27;100648.17;103108;1285;61299;-77
2024/01/01 09:57:06;;;;;;;46.80;37.40;;;;;;;16.45;39.32;100644.26;103301;1282;72038;-77
2024/01/01 09:59:39;;;;;;;47.60;37.90;;;;;;;16.45;39.35;100636.80;103345;1285;62274;-77
2024/01/01 10:02:09;;;;;;;48.90;38.20;;;;;;;16.45;39.31;100628.44;103538;1282;61252;-77
2024/01/01 10:04:35;;;;;;;46.00;36.80;;;;;;;16.45;39.32;100621.89;102784;1288;61402;-77
2024/01/01 10:07:01;;;;;;;48.10;37.40;;;;;;;16.45;39.27;100621.71;103307;1282;61252;-77
2024/01/01 10:09:27;;;;;;;47.10;36.60;;;;;;;16.45;39.27;100616.89;103271;1281;62129;-77
2024/01/01 10:11:54;;;;;;;46.80;37.50;;;;;;;16.45;39.22;100608.02;103283;1281;59991;-77
2024/01/01 10:14:20;;;;;;;45.70;36.00;;;;;;;16.45;39.30;100605.86;103146;1282;61256;-77
2024/01/01 10:16:45;;;;;;;43.90;36.00;;;;;;;16.46;39.20;100606.54;103214;1282;61353;-77
2024/01/01 10:19:12;;;;;;;45.70;36.10;;;;;;;16.46;39.21;100604.77;103388;1285;61382;-77
2024/01/01 10:21:41;;;;;;;46.40;36.40;;;;;;;16.46;39.17;100601.20;103320;1282;61260;-77
2024/01/01 10:24:16;;;;;;;;;;;;;;;16.46;39.21;100590.55;103307;1282;62396;-77
2024/01/01 10:26:50;;;;;;;46.30;35.80;;;;;;;16.43;39.23;100585.02;103303;1285;73231;-77
2024/01/01 10:29:17;;;;;;;44.80;36.10;;;;;;;16.44;39.22;100581.41;103180;1282;61258;-77
2024/01/01 10:31:44;;;;;;;45.10;36.70;;;;;;;16.45;39.18;100583.53;103386;1287;61172;-77
2024/01/01 10:34:13;;;;;;;46.80;35.30;;;;;;;16.45;39.25;100583.88;103216;1282;61351;-77
2024/01/01 10:36:42;;;;;;;47.20;36.00;;;;;;;16.45;39.26;100582.27;103220;1282;72426;-77
2024/01/01 10:39:11;;;;;;;44.10;33.40;;;;;;;16.45;39.16;100588.83;103495;1282;75130;-77
2024/01/01 10:41:39;;;;;;;;;;;;;;;16.45;39.27;100590.96;103266;1281;61404;-77
2024/01/01 10:44:08;;;;;;;45.40;34.30;;;;;;;16.42;39.23;100584.35;103334;1282;61212;-77
2024/01/01 10:46:39;;;;;;;43.80;33.80;;;;;;;16.44;39.23;100578.23;103502;1282;72287;-77
2024/01/01 10:49:08;;;;;;;42.50;34.60;;;;;;;16.45;39.27;100569.85;103299;1282;74440;-77
2024/01/01 10:51:41;;;;;;;;;;;;;;;16.44;39.27;100563.80;103308;1282;61359;-77
2024/01/01 10:54:33;;;;;;;43.70;32.80;;;;;;;16.42;39.27;100563.60;103372;1282;61293;-77
2024/01/01 10:57:20;;;;;;;42.80;33.60;;;;;;;16.43;39.24;100558.72;102624;1293;72254;-77